• Join FlightAware (Why Join?)
  • Login
  • US Flag 
10:24AM EST


 

Airport Tracker/Info


-or-


 

Live Flight TrackerFlight Track Log ✈ N332MT ✈ 23-May-2013 ✈ KRSN - KGGG

Flight Track Log - Related Links

Times and Time Zones

All times are in EDT time to prevent confusion due to time zone crossing. See the N332MT flight status page for this flight to view local times or setup timezone preferences in your user account.

Time Position Orientation Groundspeed Altitude Reporting Facility
EDT Latitude Longitude Course Direction KTS MPH feet Rate Location/Type
03:59PM 32.4378 -92.7442 264° West 226 260 11,100  Level Fort Worth Center
04:00PM 32.4306 -92.8281 264° West 269 310 12,400 1,620 Climbing Fort Worth Center
04:01PM 32.4289 -92.8997 268° West 311 358 13,800 1,980 Climbing Fort Worth Center
04:01PM 32.4281 -92.9367 268° West 299 344 14,400 1,260 Climbing Fort Worth Center
04:02PM 32.4283 -93.0031 270° West 319 367 15,100 960 Climbing Fort Worth Center
04:02PM 32.4253 -93.0328 263° West 322 371 15,400 960 Climbing Fort Worth Center
04:02PM 32.4256 -93.0992 270° West 345 397 15,900 600 Climbing Fort Worth Center
04:03PM 32.4233 -93.1583 267° West 338 389 16,000 60 Climbing Fort Worth Center
04:04PM 32.4225 -93.2567 269° West 345 397 16,000  Level Fort Worth Center
04:05PM 32.4203 -93.3822 269° West 345 397 16,000  Level Fort Worth Center
04:06PM 32.4192 -93.4783 269° West 345 397 16,000  Level Fort Worth Center
04:07PM 32.4144 -93.5992 267° West 345 397 16,000 -120 Level Fort Worth Center
04:08PM 32.4136 -93.7100 270° West 345 397 15,800 -360 Descending Fort Worth Center
04:09PM 32.4106 -93.8183 268° West 345 397 15,300 -1,020 Descending Fort Worth Center
04:10PM 32.4094 -93.9267 269° West 340 391 13,800 -1,800 Descending Fort Worth Center
04:11PM 32.4058 -94.0300 268° West 324 373 11,800 -1,800 Descending Fort Worth Center
04:12PM 32.4022 -94.1286 268° West 312 359 10,200 -1,800 Descending Fort Worth Center
04:13PM 32.4006 -94.2269 269° West 307 353 8,300 -1,740 Descending Fort Worth Center
04:14PM 32.3989 -94.3206 269° West 294 338 6,800 -1,560 Descending Fort Worth Center
04:15PM 32.3967 -94.4092 268° West 281 323 5,200 -1,560 Descending Fort Worth Center
04:16PM 32.3947 -94.4978 269° West 276 318 3,700 -1,500 Descending Fort Worth Center
04:17PM 32.4133 -94.5833 284° West 269 310 2,200 -780 Descending Fort Worth Center
04:18PM 32.4250 -94.6422 283° West 247 284 2,200 -360 Level Fort Worth Center
04:19PM 32.4372 -94.7256 280° West 220 253 1,500 -720 Descending Fort Worth Center